createdAt,value
2023-04-15T00:01:18.913Z,17.10
2023-04-15T00:03:47.450Z,17.10
2023-04-15T00:06:15.837Z,17.10
2023-04-15T00:08:43.784Z,17.10
2023-04-15T00:11:13.491Z,17.10
2023-04-15T00:13:41.695Z,17.10
2023-04-15T00:16:10.223Z,17.10
2023-04-15T00:18:38.942Z,17.10
2023-04-15T00:21:07.086Z,17.10
2023-04-15T00:23:36.581Z,17.10
2023-04-15T00:26:04.563Z,17.10
2023-04-15T00:28:33.848Z,17.10
2023-04-15T00:31:01.832Z,17.10
2023-04-15T00:33:29.871Z,17.10
2023-04-15T00:35:57.789Z,17.10
2023-04-15T00:38:25.751Z,17.10
2023-04-15T00:40:53.826Z,17.10
2023-04-15T00:43:21.781Z,17.10
2023-04-15T00:45:53.026Z,17.10
2023-04-15T00:48:22.336Z,17.00
2023-04-15T00:50:50.230Z,17.00
2023-04-15T00:53:18.192Z,17.00
2023-04-15T00:55:46.443Z,17.00
2023-04-15T00:58:14.417Z,17.00
2023-04-15T01:00:43.169Z,17.00
2023-04-15T01:03:12.587Z,17.00
2023-04-15T01:05:41.292Z,17.00
2023-04-15T01:08:09.762Z,17.00
2023-04-15T01:10:38.078Z,17.00
2023-04-15T01:13:06.090Z,17.00
2023-04-15T01:15:34.022Z,17.00
2023-04-15T01:18:03.386Z,17.00
2023-04-15T01:20:32.834Z,17.00
2023-04-15T01:23:01.096Z,17.00
2023-04-15T01:25:33.965Z,17.00
2023-04-15T01:28:02.351Z,17.00
2023-04-15T01:30:30.503Z,17.00
2023-04-15T01:32:58.522Z,17.00
2023-04-15T01:35:27.086Z,17.00
2023-04-15T01:37:55.749Z,17.00
2023-04-15T01:40:23.831Z,17.00
2023-04-15T01:42:53.119Z,16.90
2023-04-15T01:45:21.424Z,16.90
2023-04-15T01:47:49.470Z,17.00
2023-04-15T01:50:17.753Z,16.90
2023-04-15T01:52:46.929Z,17.00
2023-04-15T01:55:17.707Z,17.00
2023-04-15T01:57:46.513Z,17.00
2023-04-15T02:00:16.654Z,17.00
2023-04-15T02:02:44.943Z,17.00
2023-04-15T02:05:13.277Z,17.00
2023-04-15T02:07:42.743Z,17.00
2023-04-15T02:10:13.466Z,17.00
2023-04-15T02:12:41.656Z,17.00
2023-04-15T02:15:11.147Z,17.00
2023-04-15T02:17:40.707Z,17.00
2023-04-15T02:20:10.624Z,17.00
2023-04-15T02:22:38.759Z,17.00
2023-04-15T02:25:08.261Z,17.00
2023-04-15T02:27:37.255Z,17.00
2023-04-15T02:30:06.228Z,17.00
2023-04-15T02:32:34.279Z,17.00
2023-04-15T02:35:05.638Z,17.00
2023-04-15T02:37:36.957Z,17.00
2023-04-15T02:40:05.470Z,17.00
2023-04-15T02:42:33.413Z,17.00
2023-04-15T02:45:01.364Z,17.00
2023-04-15T02:47:29.327Z,17.00
2023-04-15T02:49:58.597Z,17.00
2023-04-15T02:52:27.850Z,17.00
2023-04-15T02:55:00.416Z,17.00
2023-04-15T02:57:29.427Z,17.00
2023-04-15T02:59:57.399Z,17.00
2023-04-15T03:02:25.625Z,17.00
2023-04-15T03:04:53.746Z,17.00
2023-04-15T03:07:21.653Z,17.00
2023-04-15T03:09:50.971Z,17.00
2023-04-15T03:12:18.966Z,16.90
2023-04-15T03:14:46.886Z,16.90
2023-04-15T03:17:14.878Z,16.90
2023-04-15T03:19:42.829Z,16.90
2023-04-15T03:22:10.868Z,16.90
2023-04-15T03:24:38.803Z,16.90
2023-04-15T03:27:08.165Z,16.90
2023-04-15T03:29:36.262Z,16.90
2023-04-15T03:32:05.796Z,16.90
2023-04-15T03:34:34.413Z,16.90
2023-04-15T03:37:03.023Z,16.90
2023-04-15T03:39:31.590Z,16.90
2023-04-15T03:42:00.273Z,16.90
2023-04-15T03:44:29.549Z,16.90
2023-04-15T03:46:57.508Z,16.90
2023-04-15T03:49:25.561Z,16.90
2023-04-15T03:51:53.458Z,16.90
2023-04-15T03:54:21.678Z,16.90
2023-04-15T03:56:49.591Z,16.90
2023-04-15T03:59:17.514Z,16.90
2023-04-15T04:01:46.905Z,16.80
2023-04-15T04:04:15.017Z,16.80
2023-04-15T04:06:43.073Z,16.80
2023-04-15T04:09:11.213Z,16.80
2023-04-15T04:11:39.179Z,16.80
2023-04-15T04:14:07.098Z,16.80
2023-04-15T04:16:35.033Z,16.80
2023-04-15T04:19:04.666Z,16.80
2023-04-15T04:21:34.064Z,16.80
2023-04-15T04:24:02.105Z,16.80
2023-04-15T04:26:30.062Z,16.80
2023-04-15T04:28:57.993Z,16.80
2023-04-15T04:31:26.226Z,16.80
2023-04-15T04:33:54.145Z,16.80
2023-04-15T04:36:23.381Z,16.80
2023-04-15T04:38:51.340Z,16.80
2023-04-15T04:41:19.344Z,16.80
2023-04-15T04:43:47.249Z,16.80
2023-04-15T04:46:15.178Z,16.80
2023-04-15T04:48:43.404Z,16.80
2023-04-15T04:51:12.340Z,16.80
2023-04-15T04:53:42.973Z,16.80
2023-04-15T04:56:11.009Z,16.80
2023-04-15T04:58:40.987Z,16.80
2023-04-15T05:01:11.675Z,16.80
2023-04-15T05:03:40.688Z,16.70
2023-04-15T05:06:18.412Z,16.70
2023-04-15T05:08:51.859Z,16.80
2023-04-15T05:11:29.076Z,16.80
2023-04-15T05:14:00.304Z,16.70
2023-04-15T05:16:31.588Z,16.80
2023-04-15T05:19:11.570Z,16.80
2023-04-15T05:21:42.026Z,16.80
2023-04-15T05:24:11.415Z,16.80
2023-04-15T05:26:42.955Z,16.80
2023-04-15T05:29:17.107Z,16.80
2023-04-15T05:31:56.767Z,16.80
2023-04-15T05:34:37.425Z,16.80
2023-04-15T05:37:30.946Z,16.80
2023-04-15T05:40:06.984Z,16.80
2023-04-15T05:42:40.482Z,16.80
2023-04-15T05:45:17.046Z,16.80
2023-04-15T05:48:03.486Z,16.80
2023-04-15T05:50:44.463Z,16.80
2023-04-15T05:53:12.900Z,16.80
2023-04-15T05:55:42.210Z,16.80
2023-04-15T05:58:10.178Z,16.80
2023-04-15T06:00:38.642Z,16.80
2023-04-15T06:03:07.838Z,16.80
2023-04-15T06:05:35.845Z,16.80
2023-04-15T06:08:03.809Z,16.80
2023-04-15T06:10:36.306Z,16.80
2023-04-15T06:13:05.717Z,16.80
2023-04-15T06:15:33.766Z,16.80
2023-04-15T06:18:01.761Z,16.80
2023-04-15T06:20:29.755Z,16.80
2023-04-15T06:22:58.272Z,16.80
2023-04-15T06:25:26.241Z,16.80
2023-04-15T06:27:55.592Z,16.80
2023-04-15T06:30:25.119Z,16.80
2023-04-15T06:32:56.221Z,16.80
2023-04-15T06:35:24.382Z,16.80
2023-04-15T06:37:52.639Z,16.80
2023-04-15T06:40:20.659Z,16.80
2023-04-15T06:42:48.591Z,16.80
2023-04-15T06:45:17.164Z,16.80
2023-04-15T06:47:46.653Z,16.90
2023-04-15T06:50:14.672Z,16.90
2023-04-15T06:52:42.610Z,16.90
2023-04-15T06:55:11.401Z,16.90
2023-04-15T06:57:39.556Z,16.90
2023-04-15T07:00:11.155Z,16.90
2023-04-15T07:02:39.509Z,16.90
2023-04-15T07:05:10.019Z,16.90
2023-04-15T07:07:38.334Z,16.90
2023-04-15T07:10:07.520Z,16.90
2023-04-15T07:12:35.895Z,17.00
2023-04-15T07:15:03.963Z,17.00
2023-04-15T07:17:32.264Z,17.00
2023-04-15T07:20:00.332Z,17.00
2023-04-15T07:22:29.699Z,17.00
2023-04-15T07:24:57.631Z,17.00
2023-04-15T07:27:25.814Z,17.00
2023-04-15T07:29:53.730Z,17.00
2023-04-15T07:32:21.798Z,17.00
2023-04-15T07:34:49.853Z,17.00
2023-04-15T07:37:17.727Z,17.00
2023-04-15T07:39:47.204Z,17.00
2023-04-15T07:42:15.274Z,17.00
2023-04-15T07:44:43.232Z,17.00
2023-04-15T07:47:11.827Z,17.00
2023-04-15T07:49:39.801Z,17.10
2023-04-15T07:52:08.526Z,17.10
2023-04-15T07:54:36.537Z,17.10
2023-04-15T07:57:05.956Z,17.10
2023-04-15T07:59:34.238Z,17.10
2023-04-15T08:02:02.585Z,17.10
2023-04-15T08:04:31.296Z,17.10
2023-04-15T08:06:59.698Z,17.10
2023-04-15T08:09:27.989Z,17.10
2023-04-15T08:11:56.512Z,17.10
2023-04-15T08:14:26.267Z,17.10
2023-04-15T08:16:54.225Z,17.10
2023-04-15T08:19:22.976Z,17.10
2023-04-15T08:21:51.338Z,17.10
2023-04-15T08:24:19.671Z,17.10
2023-04-15T08:26:47.948Z,17.10
2023-04-15T08:29:16.089Z,17.10
2023-04-15T08:31:45.681Z,17.10
2023-04-15T08:34:13.753Z,17.10
2023-04-15T08:36:41.835Z,17.10
2023-04-15T08:39:12.281Z,17.10
2023-04-15T08:41:46.413Z,17.10
2023-04-15T08:44:15.657Z,17.10
2023-04-15T08:46:48.330Z,17.10
2023-04-15T08:49:18.940Z,17.10
2023-04-15T08:51:47.129Z,17.20
2023-04-15T08:54:15.199Z,17.20
2023-04-15T08:56:43.455Z,17.20
2023-04-15T08:59:12.532Z,17.20
2023-04-15T09:01:44.048Z,17.20
2023-04-15T09:04:13.593Z,17.20
2023-04-15T09:06:42.031Z,17.10
2023-04-15T09:09:10.034Z,17.10
2023-04-15T09:11:38.023Z,17.10
2023-04-15T09:14:06.033Z,17.10
2023-04-15T09:16:54.908Z,17.10
2023-04-15T09:19:28.769Z,17.10
2023-04-15T09:21:58.823Z,17.10
2023-04-15T09:24:34.596Z,17.10
2023-04-15T09:27:02.573Z,17.10
2023-04-15T09:29:30.585Z,17.10
2023-04-15T09:31:59.830Z,17.10
2023-04-15T09:34:38.398Z,17.10
2023-04-15T09:37:07.785Z,17.10
2023-04-15T09:39:50.897Z,17.10
2023-04-15T09:42:25.144Z,17.10
2023-04-15T09:44:53.462Z,17.10
2023-04-15T09:47:31.303Z,17.10
2023-04-15T09:50:02.297Z,17.10
2023-04-15T09:52:30.798Z,17.10
2023-04-15T09:54:59.485Z,17.00
2023-04-15T09:57:36.129Z,17.10
2023-04-15T10:00:05.239Z,17.10
2023-04-15T10:02:33.659Z,17.10
2023-04-15T10:05:03.806Z,17.10
2023-04-15T10:07:31.999Z,17.10
2023-04-15T10:10:02.348Z,17.10
2023-04-15T10:12:33.410Z,17.10
2023-04-15T10:15:07.116Z,17.10
2023-04-15T10:17:37.078Z,17.10
2023-04-15T10:20:09.315Z,17.10
2023-04-15T10:22:38.829Z,17.10
2023-04-15T10:25:07.475Z,17.10
2023-04-15T10:27:35.848Z,17.10
2023-04-15T10:30:04.798Z,17.10
2023-04-15T10:32:33.414Z,17.10
2023-04-15T10:35:01.911Z,17.10
2023-04-15T10:37:37.813Z,17.10
2023-04-15T10:40:27.251Z,17.10
2023-04-15T10:42:56.477Z,17.10
2023-04-15T10:45:28.205Z,17.10
2023-04-15T10:47:57.344Z,17.10
2023-04-15T10:50:28.205Z,17.10
2023-04-15T10:52:58.041Z,17.10
2023-04-15T10:55:27.799Z,17.10
2023-04-15T10:58:00.838Z,17.10
2023-04-15T11:00:31.449Z,17.10
2023-04-15T11:03:00.990Z,17.10
2023-04-15T11:05:51.063Z,17.10
2023-04-15T11:08:21.236Z,17.10
2023-04-15T11:10:54.268Z,17.10
2023-04-15T11:13:25.786Z,17.10
2023-04-15T11:15:58.357Z,17.10
2023-04-15T11:18:28.680Z,17.10
2023-04-15T11:20:59.246Z,17.10
2023-04-15T11:23:34.153Z,17.10
2023-04-15T11:26:05.477Z,17.10
2023-04-15T11:28:34.629Z,17.10
2023-04-15T11:31:08.537Z,17.10
2023-04-15T11:33:36.534Z,17.10
2023-04-15T11:36:05.961Z,17.10
2023-04-15T11:38:35.686Z,17.10
2023-04-15T11:41:03.712Z,17.10
2023-04-15T11:43:35.359Z,17.10
2023-04-15T11:46:04.875Z,17.10
2023-04-15T11:48:43.663Z,17.10
2023-04-15T11:51:11.985Z,17.10
2023-04-15T11:53:44.541Z,17.10
2023-04-15T11:56:18.306Z,17.10
2023-04-15T11:58:46.519Z,17.10
2023-04-15T12:01:14.904Z,17.10
2023-04-15T12:03:44.719Z,17.10
2023-04-15T12:06:16.478Z,17.10
2023-04-15T12:09:10.507Z,17.10
2023-04-15T12:11:41.017Z,17.10
2023-04-15T12:14:14.482Z,17.10
2023-04-15T12:16:45.850Z,17.10
2023-04-15T12:19:19.438Z,17.10
2023-04-15T12:21:48.992Z,17.10
2023-04-15T12:24:22.396Z,17.10
2023-04-15T12:26:52.157Z,17.10
2023-04-15T12:29:21.118Z,17.10
2023-04-15T12:31:53.086Z,17.10
2023-04-15T12:34:27.954Z,17.10
2023-04-15T12:37:10.504Z,17.10
2023-04-15T12:39:41.604Z,17.10
2023-04-15T12:42:10.834Z,17.10
2023-04-15T12:44:40.112Z,17.10
2023-04-15T12:47:08.981Z,17.10
2023-04-15T12:49:37.597Z,17.10
2023-04-15T12:52:05.926Z,17.10
2023-04-15T12:54:34.593Z,17.10
2023-04-15T12:57:06.897Z,17.10
2023-04-15T12:59:35.605Z,17.10
2023-04-15T13:02:03.770Z,17.10
2023-04-15T13:04:32.175Z,17.10
2023-04-15T13:07:00.222Z,17.10
2023-04-15T13:09:28.146Z,17.10
2023-04-15T13:11:57.428Z,17.10
2023-04-15T13:14:27.074Z,17.10
2023-04-15T13:16:55.063Z,17.00
2023-04-15T13:19:23.045Z,17.00
2023-04-15T13:21:51.022Z,17.00
2023-04-15T13:24:18.938Z,17.00
2023-04-15T13:26:48.558Z,17.00
2023-04-15T13:29:17.637Z,17.00
2023-04-15T13:31:47.061Z,17.00
2023-04-15T13:34:14.988Z,17.00
2023-04-15T13:36:42.923Z,17.00
2023-04-15T13:39:10.855Z,17.00
2023-04-15T13:41:38.745Z,17.00
2023-04-15T13:44:07.282Z,17.00
2023-04-15T13:46:35.342Z,17.00
2023-04-15T13:49:04.622Z,17.00
2023-04-15T13:51:32.915Z,17.00
2023-04-15T13:54:00.865Z,17.00
2023-04-15T13:56:28.899Z,17.00
2023-04-15T13:59:02.251Z,17.00
2023-04-15T14:01:30.585Z,17.00
2023-04-15T14:03:58.716Z,17.00
2023-04-15T14:06:28.392Z,17.00
2023-04-15T14:08:56.438Z,17.00
2023-04-15T14:11:24.381Z,17.00
2023-04-15T14:13:52.318Z,17.00
2023-04-15T14:16:20.317Z,17.00
2023-04-15T14:18:48.288Z,17.00
2023-04-15T14:21:22.337Z,17.00
2023-04-15T14:23:52.237Z,17.00
2023-04-15T14:26:20.324Z,17.00
2023-04-15T14:28:48.509Z,17.00
2023-04-15T14:31:16.598Z,17.00
2023-04-15T14:33:44.537Z,17.00
2023-04-15T14:36:12.721Z,17.00
2023-04-15T14:38:41.046Z,17.00
2023-04-15T14:41:10.811Z,17.00
2023-04-15T14:43:39.040Z,17.00
2023-04-15T14:46:08.404Z,17.00
2023-04-15T14:48:36.498Z,17.00
2023-04-15T14:51:04.616Z,17.00
2023-04-15T14:53:32.722Z,17.00
2023-04-15T14:56:00.679Z,17.00
2023-04-15T14:58:29.955Z,17.00
2023-04-15T15:00:57.917Z,17.00
2023-04-15T15:03:25.940Z,17.00
2023-04-15T15:05:54.115Z,17.00
2023-04-15T15:08:22.249Z,17.00
2023-04-15T15:10:50.258Z,17.00
2023-04-15T15:13:19.245Z,17.10
2023-04-15T15:15:50.101Z,17.10
2023-04-15T15:18:19.081Z,17.00
2023-04-15T15:20:47.809Z,17.00
2023-04-15T15:23:15.943Z,17.00
2023-04-15T15:25:44.264Z,17.00
2023-04-15T15:28:12.541Z,17.00
2023-04-15T15:30:40.612Z,17.00
2023-04-15T15:33:09.941Z,17.00
2023-04-15T15:35:37.908Z,17.00
2023-04-15T15:38:06.340Z,17.00
2023-04-15T15:40:34.321Z,17.00
2023-04-15T15:43:02.209Z,17.00
2023-04-15T15:45:34.782Z,17.00
2023-04-15T15:48:02.944Z,17.00
2023-04-15T15:50:32.435Z,17.00
2023-04-15T15:53:00.407Z,17.00
2023-04-15T15:55:28.382Z,17.00
2023-04-15T15:57:56.310Z,17.00
2023-04-15T16:00:24.254Z,17.00
2023-04-15T16:05:26.047Z,17.00
2023-04-15T16:07:55.287Z,17.00
2023-04-15T16:10:23.245Z,17.00
2023-04-15T16:12:51.210Z,17.00
2023-04-15T16:15:19.440Z,17.00
2023-04-15T16:17:47.436Z,17.00
2023-04-15T16:20:15.403Z,17.00
2023-04-15T16:22:43.563Z,17.00
2023-04-15T16:25:12.856Z,17.00
2023-04-15T16:27:56.525Z,17.00
2023-04-15T16:30:28.975Z,17.00
2023-04-15T16:32:57.970Z,17.20
2023-04-15T16:35:26.078Z,17.20
2023-04-15T16:37:54.037Z,17.10
2023-04-15T16:40:23.281Z,17.10
2023-04-15T16:42:51.872Z,17.10
2023-04-15T16:45:20.018Z,17.10
2023-04-15T16:47:47.991Z,17.10
2023-04-15T16:50:16.064Z,17.10
2023-04-15T16:52:44.007Z,17.10
2023-04-15T16:55:11.937Z,17.10
2023-04-15T16:58:01.441Z,17.10
2023-04-15T17:00:29.733Z,17.10
2023-04-15T17:02:57.989Z,17.10
2023-04-15T17:05:27.485Z,17.10
2023-04-15T17:07:55.800Z,17.10
2023-04-15T17:10:23.792Z,17.20
2023-04-15T17:12:53.499Z,17.10
2023-04-15T17:15:21.496Z,17.20
2023-04-15T17:17:49.658Z,17.20
2023-04-15T17:20:18.334Z,17.20
2023-04-15T17:22:47.029Z,17.20
2023-04-15T17:25:15.251Z,17.20
2023-04-15T17:27:43.246Z,17.20
2023-04-15T17:30:13.634Z,17.10
2023-04-15T17:32:41.748Z,17.20
2023-04-15T17:35:10.524Z,17.20
2023-04-15T17:37:38.656Z,17.20
2023-04-15T17:40:08.772Z,17.20
2023-04-15T17:42:37.002Z,17.20
2023-04-15T17:45:17.773Z,17.20
2023-04-15T17:47:45.873Z,17.20
2023-04-15T17:50:13.852Z,17.20
2023-04-15T17:52:41.988Z,17.20
2023-04-15T17:55:10.303Z,17.20
2023-04-15T17:57:38.251Z,17.20
2023-04-15T18:00:10.137Z,17.30
2023-04-15T18:02:39.790Z,17.30
2023-04-15T18:05:08.650Z,17.30
2023-04-15T18:07:37.000Z,17.30
2023-04-15T18:10:05.873Z,17.30
2023-04-15T18:12:33.839Z,17.30
2023-04-15T18:15:10.973Z,17.30
2023-04-15T18:17:40.240Z,17.30
2023-04-15T18:20:08.914Z,17.30
2023-04-15T18:22:36.908Z,17.30
2023-04-15T18:25:05.446Z,17.30
2023-04-15T18:27:34.032Z,17.30
2023-04-15T18:30:02.154Z,17.30
2023-04-15T18:32:32.559Z,17.30
2023-04-15T18:35:02.450Z,17.30
2023-04-15T18:37:30.473Z,17.30
2023-04-15T18:39:58.938Z,17.30
2023-04-15T18:42:27.183Z,17.30
2023-04-15T18:44:55.291Z,17.30
2023-04-15T18:47:25.269Z,17.30
2023-04-15T18:49:54.865Z,17.30
2023-04-15T18:52:24.092Z,17.30
2023-04-15T18:54:52.010Z,17.30
2023-04-15T18:57:23.436Z,17.40
2023-04-15T19:00:03.543Z,17.30
2023-04-15T19:02:31.695Z,17.30
2023-04-15T19:05:01.734Z,17.40
2023-04-15T19:07:31.262Z,17.30
2023-04-15T19:09:59.193Z,17.40
2023-04-15T19:12:27.197Z,17.40
2023-04-15T19:14:55.255Z,17.40
2023-04-15T19:17:23.198Z,17.40
2023-04-15T19:19:51.238Z,17.40
2023-04-15T19:22:19.268Z,17.40
2023-04-15T19:24:48.524Z,17.40
2023-04-15T19:27:16.423Z,17.40
2023-04-15T19:29:44.364Z,17.40
2023-04-15T19:32:13.949Z,17.40
2023-04-15T19:34:41.913Z,17.40
2023-04-15T19:37:09.859Z,17.40
2023-04-15T19:39:37.793Z,17.40
2023-04-15T19:42:07.055Z,17.40
2023-04-15T19:44:34.984Z,17.40
2023-04-15T19:47:02.885Z,17.40
2023-04-15T19:49:31.504Z,17.40
2023-04-15T19:51:59.429Z,17.40
2023-04-15T19:54:27.387Z,17.40
2023-04-15T19:56:55.693Z,17.40
2023-04-15T19:59:24.965Z,17.40
2023-04-15T20:01:53.691Z,17.40
2023-04-15T20:04:22.553Z,17.40
2023-04-15T20:06:50.929Z,17.40
2023-04-15T20:09:18.896Z,17.40
2023-04-15T20:12:46.714Z,17.40
2023-04-15T20:14:36.069Z,17.40
2023-04-15T20:17:04.133Z,17.40
2023-04-15T20:19:32.047Z,17.40
2023-04-15T20:21:59.960Z,17.40
2023-04-15T20:24:28.171Z,17.40
2023-04-15T20:26:57.488Z,17.40
2023-04-15T20:29:25.566Z,17.40
2023-04-15T20:31:55.637Z,17.40
2023-04-15T20:34:23.569Z,17.40
2023-04-15T20:36:51.452Z,17.40
2023-04-15T20:39:19.385Z,17.40
2023-04-15T20:41:47.342Z,17.40
2023-04-15T20:44:15.375Z,17.40
2023-04-15T20:46:43.412Z,17.40
2023-04-15T20:49:12.696Z,17.40
2023-04-15T20:51:40.867Z,17.40
2023-04-15T20:54:08.822Z,17.40
2023-04-15T20:56:36.741Z,17.40
2023-04-15T20:59:05.015Z,17.40
2023-04-15T21:01:33.312Z,17.40
2023-04-15T21:04:01.322Z,17.40
2023-04-15T21:06:30.766Z,17.40
2023-04-15T21:08:58.688Z,17.40
2023-04-15T21:11:46.182Z,17.40
2023-04-15T21:14:14.830Z,17.40
2023-04-15T21:16:43.321Z,17.40
2023-04-15T21:19:11.558Z,17.40
2023-04-15T21:21:40.984Z,17.40
2023-04-15T21:24:08.981Z,17.40
2023-04-15T21:26:36.913Z,17.40
2023-04-15T21:29:05.093Z,17.40
2023-04-15T21:31:33.708Z,17.40
2023-04-15T21:34:01.680Z,17.40
2023-04-15T21:36:29.629Z,17.40
2023-04-15T21:38:58.928Z,17.40
2023-04-15T21:41:26.952Z,17.40
2023-04-15T21:43:55.156Z,17.40
2023-04-15T21:46:25.650Z,17.40
2023-04-15T21:48:55.248Z,17.40
2023-04-15T21:51:23.293Z,17.30
2023-04-15T21:53:52.571Z,17.30
2023-04-15T21:56:24.014Z,17.30
2023-04-15T21:58:52.148Z,17.30
2023-04-15T22:01:20.073Z,17.30
2023-04-15T22:03:48.111Z,17.30
2023-04-15T22:06:16.288Z,17.30
2023-04-15T22:08:54.935Z,17.30
2023-04-15T22:11:28.225Z,17.30
2023-04-15T22:13:56.694Z,17.30
2023-04-15T22:16:25.371Z,17.30
2023-04-15T22:18:53.463Z,17.30
2023-04-15T22:21:21.448Z,17.20
2023-04-15T22:23:50.428Z,17.20
2023-04-15T22:26:18.336Z,17.20
2023-04-15T22:28:48.091Z,17.20
2023-04-15T22:31:16.040Z,17.20
2023-04-15T22:33:43.955Z,17.20
2023-04-15T22:36:11.851Z,17.20
2023-04-15T22:38:39.794Z,17.20
2023-04-15T22:41:07.970Z,17.20
2023-04-15T22:43:35.897Z,17.20
2023-04-15T22:46:05.264Z,17.20
2023-04-15T22:48:33.178Z,17.20
2023-04-15T22:51:01.202Z,17.20
2023-04-15T22:53:29.174Z,17.10
2023-04-15T22:55:57.215Z,17.10
2023-04-15T22:58:25.264Z,17.10
2023-04-15T23:00:53.445Z,17.10
2023-04-15T23:03:22.773Z,17.10
2023-04-15T23:05:50.867Z,17.10
2023-04-15T23:08:18.783Z,17.10
2023-04-15T23:10:47.278Z,17.10
2023-04-15T23:13:15.313Z,17.10
2023-04-15T23:15:43.268Z,17.10
2023-04-15T23:18:11.349Z,17.10
2023-04-15T23:20:40.791Z,17.10
2023-04-15T23:23:08.703Z,17.10
2023-04-15T23:25:36.888Z,17.00
2023-04-15T23:28:04.870Z,17.10
2023-04-15T23:30:32.786Z,17.10
2023-04-15T23:33:00.826Z,17.10
2023-04-15T23:35:28.866Z,17.10
2023-04-15T23:37:58.199Z,17.00
2023-04-15T23:40:26.242Z,17.10
2023-04-15T23:42:54.156Z,17.00
2023-04-15T23:45:22.078Z,17.00
2023-04-15T23:47:50.000Z,17.00
2023-04-15T23:50:18.029Z,17.00
2023-04-15T23:52:45.951Z,17.00
2023-04-15T23:55:15.385Z,17.00
2023-04-15T23:57:43.280Z,17.00
